Time;durP1;ratioP1;P1;durP2;ratioP2;P2;SDS_P1;SDS_P2;PMS_P1;PMS_P2;Temp;Humidity;BMP_temperature;BMP_pressure;BME280_temperature;BME280_humidity;BME280_pressure;Samples;Min_cycle;Max_cycle;Signal;HPM_P1;HPM_P2
2022/03/21 00:02:12;;;;;;;90.97;54.95;;;;;;;0.06;84.36;102897.94;5014544;28;20084;-80
2022/03/21 00:04:37;;;;;;;98.07;59.45;;;;;;;0.07;84.40;102900.50;5014980;28;20030;-70
2022/03/21 00:07:03;;;;;;;92.05;56.15;;;;;;;0.06;84.31;102897.94;5016699;28;20033;-80
2022/03/21 00:09:28;;;;;;;103.20;59.67;;;;;;;0.09;84.52;102903.94;5016782;28;20260;-79
2022/03/21 00:11:53;;;;;;;98.13;57.70;;;;;;;0.08;84.31;102901.38;5021798;28;23604;-80
2022/03/21 00:14:19;;;;;;;94.82;57.22;;;;;;;0.06;83.98;102898.78;5021917;28;20113;-81
2022/03/21 00:16:44;;;;;;;93.80;56.88;;;;;;;0.09;83.94;102895.00;5020600;28;20345;-80
2022/03/21 00:19:10;;;;;;;87.88;54.53;;;;;;;0.10;84.21;102912.91;5020711;28;20064;-79
2022/03/21 00:21:35;;;;;;;95.65;54.00;;;;;;;0.11;84.29;102914.66;5023569;28;20029;-80
2022/03/21 00:24:02;;;;;;;87.47;54.00;;;;;;;0.10;84.00;102908.41;5024732;28;20030;-80
2022/03/21 00:26:27;;;;;;;81.93;50.00;;;;;;;0.04;84.17;102914.22;5024678;28;20025;-80
2022/03/21 00:28:52;;;;;;;77.25;47.55;;;;;;;-0.06;84.06;102921.28;5025097;28;20033;-79
2022/03/21 00:31:18;;;;;;;78.03;47.83;;;;;;;-0.14;84.61;102923.69;5024347;28;20466;-79
2022/03/21 00:33:43;;;;;;;82.20;50.45;;;;;;;-0.18;84.61;102917.63;5024662;28;20731;-79
2022/03/21 00:36:09;;;;;;;81.72;49.05;;;;;;;-0.18;84.81;102920.31;5024017;28;20057;-78
2022/03/21 00:38:37;;;;;;;86.03;51.15;;;;;;;-0.20;85.00;102922.28;5023174;28;20029;-79
2022/03/21 00:41:03;;;;;;;;;;;;;;;-0.13;83.33;102923.56;5024620;28;20032;-79
2022/03/21 00:43:28;;;;;;;77.32;48.10;;;;;;;-0.24;84.65;102931.56;5022742;28;19921;-80
2022/03/21 00:45:57;;;;;;;88.05;51.28;;;;;;;-0.30;85.23;102921.22;5024464;28;20029;-79
2022/03/21 00:48:24;;;;;;;85.00;50.65;;;;;;;-0.34;85.29;102930.50;5023895;28;20091;-80
2022/03/21 00:50:50;;;;;;;90.47;53.40;;;;;;;-0.35;85.54;102932.34;5024884;28;20029;-80
2022/03/21 00:53:17;;;;;;;94.20;54.17;;;;;;;-0.33;85.60;102933.06;5025418;28;20044;-80
2022/03/21 00:55:42;;;;;;;94.85;56.17;;;;;;;-0.30;85.33;102934.72;5024985;28;20045;-79
2022/03/21 00:58:08;;;;;;;90.65;54.38;;;;;;;-0.31;85.04;102931.13;5026600;28;20628;-80
2022/03/21 01:00:33;;;;;;;92.70;54.55;;;;;;;-0.32;84.87;102936.63;5025152;28;20034;-80
2022/03/21 01:03:00;;;;;;;89.85;53.40;;;;;;;-0.36;85.10;102933.28;5024843;28;20337;-79
2022/03/21 01:05:26;;;;;;;88.38;52.20;;;;;;;-0.42;85.73;102930.16;5025486;28;20017;-78
2022/03/21 01:07:52;;;;;;;84.28;49.95;;;;;;;-0.48;85.80;102928.75;5024473;28;20393;-79
2022/03/21 01:10:19;;;;;;;83.50;51.20;;;;;;;-0.48;86.19;102939.56;5025227;28;20068;-78
2022/03/21 01:12:45;;;;;;;87.80;53.00;;;;;;;-0.50;86.43;102938.81;5025429;28;20045;-79
2022/03/21 01:15:15;;;;;;;95.80;55.28;;;;;;;-0.49;86.78;102939.66;5024196;28;20083;-79
2022/03/21 01:17:45;;;;;;;95.88;55.85;;;;;;;-0.49;86.54;102936.97;5022080;28;20421;-79
2022/03/21 01:20:16;;;;;;;91.88;53.80;;;;;;;-0.55;86.32;102944.53;5024832;28;20037;-79
2022/03/21 01:22:42;;;;;;;95.40;55.65;;;;;;;-0.59;86.19;102943.00;5025782;28;20474;-80
2022/03/21 01:25:08;;;;;;;96.75;56.75;;;;;;;-0.63;86.43;102944.19;5023958;28;20029;-79
2022/03/21 01:27:34;;;;;;;97.55;55.67;;;;;;;-0.68;86.37;102948.16;5021681;28;20076;-79
2022/03/21 01:30:04;;;;;;;96.25;56.55;;;;;;;-0.73;86.52;102950.31;5022411;28;20033;-80
2022/03/21 01:32:29;;;;;;;101.05;57.80;;;;;;;-0.74;86.84;102949.47;5018575;28;20068;-80
2022/03/21 01:34:54;;;;;;;95.75;55.30;;;;;;;-0.74;87.00;102944.06;5023988;28;20025;-80
2022/03/21 01:37:19;;;;;;;98.13;55.80;;;;;;;-0.77;87.22;102940.69;5024565;28;20148;-81
2022/03/21 01:39:45;;;;;;;93.13;54.75;;;;;;;-0.77;87.35;102940.69;5024509;28;20026;-80
2022/03/21 01:42:10;;;;;;;97.30;55.92;;;;;;;-0.76;87.02;102945.13;5023377;28;20025;-80
2022/03/21 01:44:36;;;;;;;91.03;54.58;;;;;;;-0.77;86.90;102943.41;5026140;28;20413;-80
2022/03/21 01:47:01;;;;;;;93.57;56.70;;;;;;;-0.75;86.87;102950.44;5022336;28;20033;-79
2022/03/21 01:49:27;;;;;;;96.68;56.65;;;;;;;-0.79;86.97;102948.91;5023303;28;20107;-80
2022/03/21 01:51:53;;;;;;;105.78;57.15;;;;;;;-0.84;87.12;102959.16;5023260;28;20037;-79
2022/03/21 01:57:03;;;;;;;104.03;59.75;;;;;;;-0.86;87.71;102956.56;5024766;28;20051;-79
2022/03/21 01:59:30;;;;;;;103.53;58.75;;;;;;;-0.82;88.07;102952.66;5024588;28;20136;-78
2022/03/21 02:01:55;;;;;;;102.10;60.55;;;;;;;-0.81;88.23;102957.13;5021681;28;20033;-78
2022/03/21 02:04:21;;;;;;;100.05;57.35;;;;;;;-0.81;87.61;102953.56;5023938;28;20029;-79
2022/03/21 02:06:46;;;;;;;100.20;56.20;;;;;;;-0.81;87.49;102942.78;5023730;28;20030;-79
2022/03/21 02:09:12;;;;;;;97.63;54.60;;;;;;;-0.79;87.43;102948.91;5019700;28;20108;-80
2022/03/21 02:11:38;;;;;;;93.38;53.97;;;;;;;-0.82;87.06;102952.66;5024295;28;20040;-79
2022/03/21 02:14:05;;;;;;;96.85;56.45;;;;;;;-0.89;86.91;102954.06;5023580;28;20033;-79
2022/03/21 02:16:33;;;;;;;109.03;62.35;;;;;;;-0.97;86.56;102947.44;5022385;28;20453;-79
2022/03/21 02:19:03;;;;;;;107.57;60.28;;;;;;;-1.02;86.93;102952.28;5025226;28;20283;-79
2022/03/21 02:21:48;;;;;;;106.65;60.55;;;;;;;-1.08;87.38;102949.03;5023583;28;20033;-80
2022/03/21 02:24:20;;;;;;;117.57;64.03;;;;;;;-1.09;87.89;102950.03;5024073;28;20107;-79
2022/03/21 02:26:46;;;;;;;118.00;64.18;;;;;;;-1.09;87.81;102952.72;5023023;28;20033;-80
2022/03/21 02:29:13;;;;;;;119.47;67.00;;;;;;;-1.09;88.02;102952.72;5023720;28;20029;-79
2022/03/21 02:31:39;;;;;;;126.65;71.80;;;;;;;-1.07;88.33;102942.69;5020149;28;20033;-67
2022/03/21 02:34:04;;;;;;;122.53;67.60;;;;;;;-1.08;88.09;102940.94;5024628;28;20029;-79
2022/03/21 02:36:31;;;;;;;124.18;70.65;;;;;;;-1.08;88.02;102951.75;5023319;28;20037;-79
2022/03/21 02:38:57;;;;;;;117.90;63.97;;;;;;;-1.13;88.04;102958.41;5024666;28;20100;-78
2022/03/21 02:41:22;;;;;;;116.82;66.07;;;;;;;-1.15;88.16;102952.28;5023276;28;20152;-78
2022/03/21 02:43:52;;;;;;;128.88;69.22;;;;;;;-1.15;88.48;102954.97;5022735;28;20033;-78
2022/03/21 02:46:18;;;;;;;124.35;67.50;;;;;;;-1.16;88.61;102951.41;5021683;28;20083;-78
2022/03/21 02:48:45;;;;;;;126.43;67.50;;;;;;;-1.13;88.77;102951.19;5022551;28;20365;-79
2022/03/21 02:51:11;;;;;;;128.63;70.90;;;;;;;-1.13;88.39;102953.03;5023222;28;20025;-77
2022/03/21 02:53:38;;;;;;;124.38;65.82;;;;;;;-1.16;88.37;102954.09;5023974;28;20052;-79
2022/03/21 02:56:04;;;;;;;118.28;66.43;;;;;;;-1.19;87.94;102948.91;5023182;28;20026;-78
2022/03/21 02:58:29;;;;;;;120.30;65.13;;;;;;;-1.24;88.28;102953.75;5022823;28;20463;-78
2022/03/21 03:01:09;;;;;;;127.28;68.10;;;;;;;-1.21;88.53;102961.63;5021781;28;20109;-78
2022/03/21 03:03:34;;;;;;;131.93;70.68;;;;;;;-1.19;88.65;102957.00;5024294;28;20021;-77
2022/03/21 03:05:59;;;;;;;126.18;67.38;;;;;;;-1.19;88.67;102957.00;5022698;28;20108;-77
2022/03/21 03:08:25;;;;;;;119.18;64.82;;;;;;;-1.18;88.63;102950.63;5023099;28;20033;-77
2022/03/21 03:10:50;;;;;;;120.32;66.68;;;;;;;-1.20;88.47;102944.50;5022505;28;20045;-78
2022/03/21 03:13:15;;;;;;;119.50;66.88;;;;;;;-1.23;88.54;102952.75;5022203;28;20038;-77
2022/03/21 03:15:40;;;;;;;124.50;66.88;;;;;;;-1.23;88.62;102954.59;5020259;28;20136;-78
2022/03/21 03:18:06;;;;;;;120.50;66.75;;;;;;;-1.24;88.61;102950.19;5022643;28;20037;-79
2022/03/21 03:20:31;;;;;;;109.85;62.60;;;;;;;-1.29;88.50;102950.47;5020727;28;20497;-77
2022/03/21 03:23:00;;;;;;;124.32;67.68;;;;;;;-1.33;88.29;102948.94;5021678;28;20025;-78
2022/03/21 03:25:26;;;;;;;124.05;67.85;;;;;;;-1.38;88.74;102949.25;5022271;28;20476;-78
2022/03/21 03:27:51;;;;;;;119.53;67.15;;;;;;;-1.38;89.05;102953.78;5021305;28;20029;-77
2022/03/21 03:30:16;;;;;;;125.13;67.72;;;;;;;-1.36;89.08;102960.81;5019362;28;20120;-77
2022/03/21 03:32:42;;;;;;;121.78;68.70;;;;;;;-1.35;88.87;102958.97;5022722;28;20037;-77
2022/03/21 03:35:08;;;;;;;126.35;69.35;;;;;;;-1.36;89.23;102958.13;5022984;28;20017;-75
2022/03/21 03:37:34;;;;;;;130.00;69.32;;;;;;;-1.37;89.25;102961.78;5020383;28;20033;-76
2022/03/21 03:39:59;;;;;;;122.78;67.50;;;;;;;-1.39;89.44;102962.84;5022004;28;20557;-77
2022/03/21 03:42:25;;;;;;;129.88;72.25;;;;;;;-1.42;89.31;102963.03;5021241;28;20025;-76
2022/03/21 03:44:50;;;;;;;127.88;70.88;;;;;;;-1.42;89.44;102960.34;5020896;28;20029;-77
2022/03/21 03:47:15;;;;;;;119.85;65.60;;;;;;;-1.44;89.76;102965.84;5018501;28;20468;-76
2022/03/21 03:49:40;;;;;;;119.80;68.30;;;;;;;-1.45;89.90;102958.72;5021455;28;20052;-77
2022/03/21 03:52:06;;;;;;;126.22;65.88;;;;;;;-1.44;90.03;102962.28;5020152;28;20527;-76
2022/03/21 03:54:31;;;;;;;122.28;67.38;;;;;;;-1.43;90.12;102955.91;5021294;28;20772;-76
2022/03/21 03:56:56;;;;;;;124.47;67.72;;;;;;;-1.42;90.31;102958.53;5019162;28;20143;-76
2022/03/21 03:59:22;;;;;;;117.32;65.95;;;;;;;-1.41;90.00;102971.03;5022521;28;20500;-76
2022/03/21 04:01:47;;;;;;;121.93;64.63;;;;;;;-1.45;90.10;102972.19;5019584;28;20051;-76
2022/03/21 04:04:12;;;;;;;118.15;65.75;;;;;;;-1.46;90.26;102966.91;5021267;28;20076;-77
2022/03/21 04:06:37;;;;;;;121.60;65.18;;;;;;;-1.48;90.13;102974.22;5021758;28;20045;-77
2022/03/21 04:09:03;;;;;;;121.47;65.90;;;;;;;-1.52;90.04;102973.56;5022372;28;20029;-76
2022/03/21 04:11:28;;;;;;;122.88;64.72;;;;;;;-1.52;90.51;102972.69;5020497;28;20138;-77
2022/03/21 04:13:53;;;;;;;132.32;69.75;;;;;;;-1.49;90.55;102972.50;5022749;28;20030;-77
2022/03/21 04:16:19;;;;;;;121.05;67.35;;;;;;;-1.48;90.54;102972.38;5020965;28;20488;-76
2022/03/21 04:18:44;;;;;;;127.63;69.30;;;;;;;-1.48;90.49;102977.78;5020129;28;20519;-75
2022/03/21 04:21:09;;;;;;;126.13;64.97;;;;;;;-1.47;90.31;102974.13;5021627;28;20114;-72
2022/03/21 04:23:35;;;;;;;126.93;67.93;;;;;;;-1.47;90.60;102975.94;5021104;28;20042;-76
2022/03/21 04:26:01;;;;;;;126.60;67.53;;;;;;;-1.46;90.53;102969.59;5020757;28;20091;-76
2022/03/21 04:28:26;;;;;;;124.20;66.97;;;;;;;-1.45;90.50;102971.34;5032512;28;20029;-76
2022/03/21 04:30:51;;;;;;;121.35;66.07;;;;;;;-1.44;90.69;102964.97;5021162;28;20030;-77
2022/03/21 04:33:17;;;;;;;121.43;65.57;;;;;;;-1.45;90.73;102964.13;5021629;28;20481;-76
2022/03/21 04:35:43;;;;;;;128.30;66.80;;;;;;;-1.43;90.52;102962.16;5022262;28;20524;-77
2022/03/21 04:38:14;;;;;;;127.40;67.80;;;;;;;-1.42;90.64;102971.13;5020357;28;20029;-77
2022/03/21 04:40:41;;;;;;;114.20;63.85;;;;;;;-1.43;90.32;102967.56;5019769;28;20063;-76
2022/03/21 04:43:08;;;;;;;106.43;58.58;;;;;;;-1.48;89.78;102969.69;5019291;28;20026;-76
2022/03/21 04:45:34;;;;;;;110.15;61.40;;;;;;;-1.55;89.88;102972.91;5022170;28;20116;-76
2022/03/21 04:47:59;;;;;;;119.95;61.25;;;;;;;-1.60;90.48;102970.50;5018716;28;20112;-76
2022/03/21 04:50:24;;;;;;;117.25;63.67;;;;;;;-1.58;90.65;102973.94;5018324;28;20065;-77
2022/03/21 04:52:50;;;;;;;122.88;65.22;;;;;;;-1.59;90.54;102975.78;5020880;28;20072;-76
2022/03/21 04:55:15;;;;;;;122.22;67.43;;;;;;;-1.60;90.92;102978.59;5019847;28;20091;-76
2022/03/21 04:57:41;;;;;;;126.53;66.25;;;;;;;-1.63;91.11;102985.03;5021543;28;20029;-77
2022/03/21 05:00:07;;;;;;;122.07;66.45;;;;;;;-1.63;91.06;102976.94;5020122;28;20049;-77
2022/03/21 05:02:32;;;;;;;127.75;67.88;;;;;;;-1.63;91.53;102982.31;5020926;28;20049;-77
2022/03/21 05:04:57;;;;;;;127.63;65.15;;;;;;;-1.61;91.57;102980.41;5022502;28;20500;-77
2022/03/21 05:07:22;;;;;;;121.35;66.13;;;;;;;-1.58;91.96;102982.88;5020886;28;20018;-76
2022/03/21 05:09:48;;;;;;;120.18;63.42;;;;;;;-1.55;91.88;102983.69;5026322;28;20403;-76
2022/03/21 05:12:14;;;;;;;117.50;63.83;;;;;;;-1.54;91.80;102982.69;5023853;28;20132;-76
2022/03/21 05:14:40;;;;;;;114.65;62.60;;;;;;;-1.55;91.69;102978.28;5025485;28;20595;-76
2022/03/21 05:17:09;;;;;;;118.18;63.88;;;;;;;-1.56;91.80;102993.59;5023506;28;20025;-76
2022/03/21 05:19:37;;;;;;;115.50;62.25;;;;;;;-1.62;91.46;102996.69;5026078;28;20025;-77
2022/03/21 05:22:06;;;;;;;115.75;62.50;;;;;;;-1.68;91.44;103008.69;5023547;28;20069;-77
2022/03/21 05:32:44;;;;;;;110.38;60.20;;;;;;;-1.64;92.04;103001.28;5023541;28;20053;-77
2022/03/21 05:37:54;;;;;;;119.07;62.47;;;;;;;-1.60;92.02;103003.69;5024689;28;20045;-77
2022/03/21 05:40:31;;;;;;;116.13;60.05;;;;;;;-1.57;92.56;103005.34;5023442;28;20496;-76
2022/03/21 05:42:57;;;;;;;112.50;59.60;;;;;;;-1.58;92.27;103003.59;5027910;28;20021;-77
2022/03/21 05:45:23;;;;;;;120.97;61.90;;;;;;;-1.59;92.39;103000.03;5022614;28;20040;-78
2022/03/21 05:50:37;;;;;;;116.75;60.97;;;;;;;-1.52;92.80;102988.84;5023711;28;20087;-77
2022/03/21 05:53:04;;;;;;;122.80;60.60;;;;;;;-1.50;92.98;102992.31;5023589;28;20128;-77
2022/03/21 05:55:30;;;;;;;123.95;63.50;;;;;;;-1.46;93.32;102988.47;5022394;28;20030;-76
2022/03/21 05:57:56;;;;;;;120.10;60.35;;;;;;;-1.39;93.34;102996.03;5023750;28;20033;-76
2022/03/21 06:00:21;;;;;;;126.05;62.50;;;;;;;-1.34;93.56;102999.31;5023177;28;20049;-76
2022/03/21 06:02:47;;;;;;;124.82;63.03;;;;;;;-1.27;93.44;103002.44;5022353;28;20573;-76
2022/03/21 06:05:13;;;;;;;122.90;60.75;;;;;;;-1.21;93.33;102998.53;5024016;28;20026;-77
2022/03/21 06:07:38;;;;;;;117.05;59.65;;;;;;;-1.19;92.94;103002.81;5022027;28;20060;-75
2022/03/21 06:10:04;;;;;;;109.03;57.15;;;;;;;-1.16;92.64;103008.03;5022816;28;20396;-76
2022/03/21 06:12:32;;;;;;;107.47;55.85;;;;;;;-1.13;92.34;103009.66;5019811;28;20037;-76
2022/03/21 06:14:57;;;;;;;;;;;;;;;-1.01;91.69;103007.94;5023804;28;20083;-76
2022/03/21 06:17:23;;;;;;;99.50;53.00;;;;;;;-1.02;91.71;103008.94;5021618;28;19905;-76
2022/03/21 06:19:48;;;;;;;109.05;56.10;;;;;;;-0.96;91.94;103013.91;5022248;28;20824;-76
2022/03/21 06:22:13;;;;;;;106.63;57.53;;;;;;;-0.81;92.07;103012.91;5021503;28;20025;-76
2022/03/21 06:24:39;;;;;;;111.57;58.15;;;;;;;-0.62;92.19;103016.06;5024576;28;20433;-73
2022/03/21 06:27:04;;;;;;;111.68;56.75;;;;;;;-0.47;91.84;103010.59;5022291;28;20037;-76
2022/03/21 06:29:29;;;;;;;103.93;55.50;;;;;;;-0.38;90.91;103026.16;5021964;28;20057;-77
2022/03/21 06:31:54;;;;;;;111.75;55.67;;;;;;;-0.33;90.95;103027.56;5022370;28;20041;-76
2022/03/21 06:34:20;;;;;;;107.07;54.90;;;;;;;-0.28;90.82;103027.25;5024363;28;20040;-76
2022/03/21 06:36:45;;;;;;;114.03;58.67;;;;;;;-0.16;90.96;103026.38;5023940;28;20091;-76
2022/03/21 06:39:11;;;;;;;104.30;57.90;;;;;;;-0.03;91.02;103031.81;5021874;28;20053;-77
2022/03/21 06:41:37;;;;;;;114.10;61.97;;;;;;;0.10;90.41;103031.78;5023781;28;20726;-76
2022/03/21 06:44:03;;;;;;;111.13;58.20;;;;;;;0.16;89.83;103026.84;5021779;28;20090;-76
2022/03/21 06:46:28;;;;;;;101.53;58.40;;;;;;;0.23;89.40;103036.22;5020355;28;20045;-77
2022/03/21 06:48:53;;;;;;;106.90;58.13;;;;;;;0.39;89.43;103035.13;5025676;28;20029;-76
2022/03/21 06:51:19;;;;;;;96.03;54.97;;;;;;;0.56;89.44;103034.78;5041490;28;20483;-76
2022/03/21 06:53:44;;;;;;;98.20;56.67;;;;;;;0.68;89.46;103042.00;5029258;28;20034;-76
2022/03/21 06:56:09;;;;;;;100.63;57.50;;;;;;;0.81;89.56;103046.50;5033943;28;20111;-75
2022/03/21 06:58:34;;;;;;;101.45;56.30;;;;;;;0.95;89.60;103041.78;5022224;28;20022;-75
2022/03/21 07:01:00;;;;;;;109.15;57.70;;;;;;;1.15;89.63;103043.00;5022720;28;20065;-75
2022/03/21 07:03:26;;;;;;;113.88;58.35;;;;;;;1.41;89.30;103043.75;5022989;28;20026;-76
2022/03/21 07:05:52;;;;;;;110.25;58.00;;;;;;;1.63;89.07;103047.53;5032030;28;20534;-75
2022/03/21 07:08:17;;;;;;;105.78;56.97;;;;;;;1.98;88.20;103053.78;5042939;28;20059;-77
2022/03/21 07:10:44;;;;;;;104.03;55.42;;;;;;;2.28;86.54;103052.31;5028998;28;20088;-76
2022/03/21 07:13:10;;;;;;;102.93;58.55;;;;;;;2.41;86.27;103047.66;5023342;28;20028;-68
2022/03/21 07:15:37;;;;;;;115.70;60.40;;;;;;;2.53;87.70;103051.22;5022620;28;20029;-76
2022/03/21 07:18:03;;;;;;;110.95;60.30;;;;;;;2.72;87.28;103058.72;5023078;28;20064;-76
2022/03/21 07:20:28;;;;;;;118.38;60.65;;;;;;;2.84;88.32;103050.47;5026918;28;20781;-76
2022/03/21 07:22:55;;;;;;;118.90;62.47;;;;;;;3.04;88.14;103054.25;5027271;28;20021;-78
2022/03/21 07:25:22;;;;;;;118.35;60.58;;;;;;;3.16;88.27;103046.06;5026521;28;20041;-77
2022/03/21 07:27:48;;;;;;;124.47;63.42;;;;;;;3.33;88.85;103054.50;5027061;28;20515;-77
2022/03/21 07:30:14;;;;;;;114.53;60.88;;;;;;;3.71;88.98;103046.84;5020929;28;20044;-76
2022/03/21 07:32:41;;;;;;;120.75;59.85;;;;;;;4.10;87.71;103048.78;5021591;28;20424;-76
2022/03/21 07:35:07;;;;;;;122.90;62.63;;;;;;;4.59;87.08;103041.72;5022795;28;20061;-77
2022/03/21 07:37:46;;;;;;;112.75;59.05;;;;;;;5.49;84.34;103048.94;5021630;28;20044;-77
2022/03/21 07:40:12;;;;;;;118.47;58.03;;;;;;;6.52;80.34;103042.72;5022281;28;20033;-77
2022/03/21 07:42:42;;;;;;;119.18;57.30;;;;;;;6.93;78.19;103032.28;5022865;28;20171;-76
2022/03/21 07:47:53;;;;;;;116.60;57.53;;;;;;;7.53;75.91;103038.91;5021758;28;20032;-76
2022/03/21 07:50:19;;;;;;;122.60;57.50;;;;;;;7.68;74.87;103036.47;5021729;28;20435;-76
2022/03/21 07:52:45;;;;;;;115.93;54.67;;;;;;;8.61;73.86;103042.25;5022290;28;20091;-76
2022/03/21 07:55:10;;;;;;;108.32;54.92;;;;;;;9.41;69.95;103039.06;5021947;28;20417;-76
2022/03/21 07:57:35;;;;;;;97.30;51.30;;;;;;;9.23;69.79;103042.81;5022629;28;20041;-73
2022/03/21 08:00:01;;;;;;;81.15;45.72;;;;;;;9.42;70.28;103040.78;5021863;28;20034;-76
2022/03/21 08:02:27;;;;;;;63.53;37.33;;;;;;;9.71;69.50;103041.16;5020338;28;20520;-76
2022/03/21 08:04:53;;;;;;;58.78;34.08;;;;;;;10.06;68.07;103045.41;5022306;28;20025;-77
2022/03/21 08:07:18;;;;;;;46.38;29.80;;;;;;;9.90;67.30;103050.94;5021507;28;20017;-76
2022/03/21 08:09:43;;;;;;;42.67;28.63;;;;;;;9.84;67.64;103048.88;5022238;28;20022;-78
2022/03/21 08:12:10;;;;;;;44.47;27.02;;;;;;;10.08;65.91;103054.31;5021715;28;20076;-77
2022/03/21 08:14:36;;;;;;;41.90;27.70;;;;;;;10.11;65.85;103045.75;5022489;28;20096;-77
2022/03/21 08:17:01;;;;;;;39.58;25.75;;;;;;;10.16;64.76;103047.13;5020244;28;20530;-77
2022/03/21 08:19:27;;;;;;;37.63;25.45;;;;;;;10.24;66.58;103055.38;5020244;28;20571;-78
2022/03/21 08:21:55;;;;;;;39.35;26.33;;;;;;;10.30;65.23;103058.28;5021356;28;20041;-78
2022/03/21 08:24:22;;;;;;;37.63;25.60;;;;;;;10.28;65.07;103056.72;5020407;28;20025;-77
2022/03/21 08:26:48;;;;;;;37.80;25.38;;;;;;;10.35;63.54;103049.53;5021677;28;20026;-77
2022/03/21 08:29:15;;;;;;;36.17;24.33;;;;;;;10.68;62.07;103046.66;5020091;28;20479;-78
2022/03/21 08:31:40;;;;;;;39.88;26.33;;;;;;;10.86;62.41;103050.91;5020209;28;20400;-76
2022/03/21 08:34:05;;;;;;;35.80;23.92;;;;;;;10.95;61.21;103051.72;5020883;28;20024;-77
2022/03/21 08:36:31;;;;;;;37.15;24.42;;;;;;;11.08;60.19;103051.13;5021688;28;20022;-79
2022/03/21 08:38:57;;;;;;;39.67;24.23;;;;;;;11.54;60.09;103048.41;5021618;28;20025;-77
2022/03/21 08:41:23;;;;;;;37.03;24.98;;;;;;;11.94;61.48;103045.38;5019925;28;20196;-77
2022/03/21 08:43:48;;;;;;;34.10;23.05;;;;;;;12.10;58.74;103049.00;5024614;28;20168;-76
2022/03/21 08:46:13;;;;;;;35.70;23.73;;;;;;;12.44;56.38;103043.81;5023844;28;20026;-76
2022/03/21 08:51:23;;;;;;;35.60;23.90;;;;;;;12.52;56.43;103042.00;5025228;28;20510;-79
2022/03/21 08:53:48;;;;;;;37.25;24.45;;;;;;;12.65;57.15;103043.06;5025547;28;20025;-77
2022/03/21 08:56:14;;;;;;;35.30;24.27;;;;;;;12.87;57.60;103041.22;5024579;28;20069;-77
2022/03/21 08:58:39;;;;;;;35.08;23.15;;;;;;;13.13;54.10;103045.38;5024977;28;20432;-76
2022/03/21 09:01:05;;;;;;;31.55;22.08;;;;;;;13.54;53.22;103042.03;5024791;28;20040;-78
2022/03/21 09:03:30;;;;;;;32.45;22.52;;;;;;;14.55;51.41;103049.06;5024269;28;20692;-76
2022/03/21 09:05:55;;;;;;;33.95;24.05;;;;;;;15.85;49.12;103030.53;5025429;28;20086;-77
2022/03/21 09:08:20;;;;;;;32.15;20.90;;;;;;;16.73;44.31;103042.19;5024631;28;20149;-79
2022/03/21 09:10:47;;;;;;;30.48;20.92;;;;;;;18.14;41.56;103041.97;5024997;28;20040;-80
2022/03/21 09:13:13;;;;;;;30.23;20.42;;;;;;;19.10;38.75;103041.34;5022898;28;20032;-77
2022/03/21 09:15:38;;;;;;;30.25;20.60;;;;;;;19.81;37.96;103039.69;5024207;28;20018;-69
2022/03/21 09:18:03;;;;;;;30.08;19.75;;;;;;;20.44;36.19;103040.97;5025306;28;20402;-74
2022/03/21 09:20:30;;;;;;;27.05;20.30;;;;;;;20.99;33.89;103037.75;5024304;28;20440;-74
2022/03/21 09:22:57;;;;;;;29.05;19.58;;;;;;;21.20;33.53;103045.44;5024991;28;20026;-72
2022/03/21 09:25:22;;;;;;;27.45;19.13;;;;;;;21.53;33.65;103037.41;5024675;28;20022;-73
2022/03/21 09:27:47;;;;;;;28.48;20.15;;;;;;;21.95;33.41;103040.69;5024498;28;20024;-73
2022/03/21 09:30:13;;;;;;;30.05;21.10;;;;;;;22.32;33.31;103037.38;5023599;28;20032;-72
2022/03/21 09:32:39;;;;;;;30.27;20.75;;;;;;;23.20;32.32;103032.69;5024410;28;20104;-70
2022/03/21 09:35:05;;;;;;;30.88;21.27;;;;;;;23.58;29.67;103026.09;5024961;28;20434;-71
2022/03/21 09:37:34;;;;;;;33.70;21.83;;;;;;;23.07;31.34;103030.31;5024008;28;20037;-73
2022/03/21 09:40:00;;;;;;;29.90;22.38;;;;;;;23.72;30.59;103033.00;5024391;28;20490;-74
2022/03/21 09:42:25;;;;;;;31.67;22.63;;;;;;;24.01;28.74;103024.25;5024444;28;20057;-74
2022/03/21 09:44:53;;;;;;;32.03;22.70;;;;;;;24.21;28.58;103015.13;5024060;28;20468;-75
2022/03/21 09:50:10;;;;;;;32.95;24.92;;;;;;;23.47;30.80;103033.56;5024210;28;20040;-71
2022/03/21 09:52:36;;;;;;;33.10;22.00;;;;;;;24.39;29.33;103023.16;5022196;28;20025;-77
2022/03/21 09:55:02;;;;;;;33.22;22.67;;;;;;;24.37;27.97;103021.72;5023327;28;20121;-78
2022/03/21 09:57:28;;;;;;;28.23;21.17;;;;;;;23.68;29.64;103026.25;5023716;28;20671;-77
2022/03/21 09:59:57;;;;;;;36.35;25.38;;;;;;;23.82;28.98;103012.59;5023277;28;20140;-75
2022/03/21 10:02:22;;;;;;;38.88;27.55;;;;;;;24.72;28.50;103012.66;5023357;28;20017;-76
2022/03/21 10:04:47;;;;;;;41.00;26.42;;;;;;;25.53;27.31;103007.28;5024009;28;20029;-76
2022/03/21 10:07:13;;;;;;;36.00;25.27;;;;;;;26.07;26.80;103008.75;5023215;28;20084;-77
2022/03/21 10:09:38;;;;;;;29.02;21.63;;;;;;;25.35;25.97;103005.03;5024295;28;20147;-79
2022/03/21 10:12:09;;;;;;;33.95;23.73;;;;;;;25.36;26.77;103010.38;5023604;28;20040;-79
2022/03/21 10:14:37;;;;;;;34.25;24.88;;;;;;;25.14;26.05;103012.56;5024127;28;20022;-79
2022/03/21 10:17:07;;;;;;;38.05;26.85;;;;;;;25.61;26.70;103006.75;5022853;28;20053;-78
2022/03/21 10:19:48;;;;;;;35.67;25.27;;;;;;;25.84;27.40;103002.53;5022234;28;20092;-79
2022/03/21 10:22:16;;;;;;;37.00;25.23;;;;;;;25.32;26.25;102999.94;5023793;28;20155;-79
2022/03/21 10:24:44;;;;;;;33.80;25.63;;;;;;;25.73;25.91;103000.84;5023672;28;20045;-79
2022/03/21 10:27:42;;;;;;;42.20;26.90;;;;;;;26.96;27.57;103001.44;5021825;28;20037;-78
2022/03/21 10:30:15;;;;;;;32.72;20.25;;;;;;;27.10;24.57;102996.03;5022218;28;20025;-79
2022/03/21 10:32:50;;;;;;;33.60;22.95;;;;;;;26.94;25.44;103006.53;5023174;28;20100;-80
2022/03/21 10:35:24;;;;;;;32.22;21.58;;;;;;;26.99;25.01;103002.84;5023187;28;20109;-80
2022/03/21 10:37:58;;;;;;;32.53;21.35;;;;;;;26.83;25.34;102993.63;5023422;28;20037;-79
2022/03/21 10:40:26;;;;;;;30.27;20.77;;;;;;;26.90;23.75;103000.59;5023529;28;20034;-79
2022/03/21 10:42:55;;;;;;;;;;;;;;;27.56;26.01;102995.72;5023315;28;20021;-79
2022/03/21 10:45:24;;;;;;;31.52;19.77;;;;;;;26.64;24.11;102988.59;5022220;28;20016;-79
2022/03/21 10:47:53;;;;;;;28.98;18.80;;;;;;;26.73;24.58;102993.66;5022548;28;20083;-79
2022/03/21 10:50:30;;;;;;;29.70;20.73;;;;;;;26.14;24.77;102981.94;5022405;28;20155;-77
2022/03/21 10:53:15;;;;;;;30.75;21.17;;;;;;;26.10;25.50;102991.25;5023020;28;20091;-77
2022/03/21 10:55:43;;;;;;;28.70;19.38;;;;;;;26.77;24.21;102991.97;5022673;28;20026;-77
2022/03/21 10:58:11;;;;;;;31.23;21.58;;;;;;;26.42;23.59;102985.31;5022308;28;20017;-77
2022/03/21 11:00:37;;;;;;;30.10;21.00;;;;;;;27.14;25.09;102981.06;5021913;28;20352;-77
2022/03/21 11:03:09;;;;;;;33.58;22.35;;;;;;;26.95;24.39;102979.16;5022937;28;20431;-77
2022/03/21 11:05:37;;;;;;;32.85;21.75;;;;;;;26.85;24.65;102977.25;5022578;28;20025;-76
2022/03/21 11:08:07;;;;;;;29.20;22.02;;;;;;;27.90;24.91;102971.16;5022537;28;20492;-75
2022/03/21 11:10:33;;;;;;;31.08;21.98;;;;;;;28.43;22.80;102976.00;5022174;28;20038;-77
2022/03/21 11:13:01;;;;;;;30.25;20.83;;;;;;;28.28;22.33;102970.50;5020871;28;20064;-77
2022/03/21 11:15:26;;;;;;;;;;;;;;;29.19;24.49;102968.50;5021914;28;20032;-77
2022/03/21 11:17:53;;;;;;;30.10;21.02;;;;;;;28.78;22.22;102957.75;5021874;28;19912;-78
2022/03/21 11:20:18;;;;;;;31.90;20.27;;;;;;;28.60;21.00;102967.03;5021780;28;20076;-77
2022/03/21 11:22:43;;;;;;;31.75;21.38;;;;;;;28.48;21.57;102963.78;5022485;28;20041;-77
2022/03/21 11:25:16;;;;;;;31.85;22.88;;;;;;;28.92;23.25;102966.31;5022448;28;20052;-76
2022/03/21 11:28:12;;;;;;;34.13;22.23;;;;;;;29.09;23.23;102972.31;5022342;28;20056;-76
2022/03/21 11:31:00;;;;;;;32.17;22.40;;;;;;;28.57;22.97;102961.97;5021255;28;20036;-75